Grouseland, Indiana
Current Conditions -  °F | °C
As of 10:53 PM on Monday 22 Dec 2014 (Local Time) from KHUF Reporting Station
Overcast Overcast  
Wind Chill: 43°   Ceiling: 1700
Heat Index: 49°   Visibility: 10mi
Dew Point: 44°   Wind: 15mph
Humidity: 83%   Direction: 150°SSE
Pressure: 29.62"   Gusts: NA
Location:  39.543°N, 87.3153°W
Report Text: KHUF 230353Z 15013KT 10SM OVC017 09/07 A2962 RMK AO2 SLP032 T00940067
Loading
Personal Weather Stations






























Interactive Weather Map New forecast layout! Learn more

10-Day Weather Forecast

Advertisements
Track Severe Weather on mobile